VG04 weather

Yorktown Power Station Heliport
Newport News, Virginia, United States

Public forecast

Using degrees Fahrenheit for public forecast. Weather courtesy of forecast.io.

METAR (pilot weather report)

Closest report is Newport News Williamsburg International Airport, 5.3 nm (9.8 km) SSW. Retrieved 2019/07/17 03:54 UTC (32 minutes ago):

KPHF 170354Z 18004KT 10SM CLR 26/23 A3007 RMK AO2 RAE54 SLP182 P0000 T02560233

TAF (pilot weather forecast)

Forecast is more than 12 hours old.

Closest forecast is Newport News Williamsburg International Airport, 5.3 nm (9.8 km) SSW. Retrieved 2019/07/16 00:34 UTC (1 day ago):

TAF KPHF 162332Z 1700/1724 22008KT P6SM BKN150 FM170600 22008KT P6SM SCT250 FM171800 21010G18KT P6SM SCT250